International Virtual Aviation Organisation

Russian Federation and Kazakhstan MCD

 

Карточка аэропорта UNOO

Внимание!
Информация на этой странице в стадии наполнения.
Если вы не увидели какой-то информации, или заметили неточность - пожалуйста сообщите нам!
Спасибо!
Команда RU-STAFF
Название аэропортаЦентральный
Название аэропорта (англ.)Tsentralny
Превышение303 ft. (92.4 m.)
Координаты54°58.02', 73°19.02'
Высота перехода800m
Эшелон переходаQFE>=751mm:FL050; QFE<751=>724:FL060; QFE<724:FL070
Коды ответчика5440-5467
Зона ОрВДНовосибирск РПИ (UNNT)
Данные METARUNOO 250530Z 17005MPS 6000 BKN006 M08/M08 Q1038 R25/190040 TEMPO 1000 BR OVC005 RMK OBST OBSC QFE770
Проноз погоды (TAF)UNOO 250150Z 2503/2603 17003G09MPS 6000 BKN010 TEMPO 2503/2506 2100 -SN BR BECMG 2506/2508 13003G09MPS
NOTAMshow/hide NOTAM
AWOS   TABLE

Информация о ВПП

ВПП Длина ВПП (м.) Покрытие Курс ВПП Частота ILS
072501Асфальтобетон65108.3
252501Асфальтобетон245110.1

Диспетчерские позиции

Позывной Наименование органа УВД Частота
UNOO_APPОмск - Подход131.200
UNOO_TWRОмск - Старт119.000
UNOO_GNDОмск-Руление121.700



Спутниковое изображение